sensor_id;sensor_type;location;lat;lon;timestamp;P1;durP1;ratioP1;P2;durP2;ratioP2
39772;SDS011;25451;51.960;6.250;2023-06-22T00:02:21;9.30;;;4.93;;
39772;SDS011;25451;51.960;6.250;2023-06-22T00:04:47;7.93;;;4.50;;
39772;SDS011;25451;51.960;6.250;2023-06-22T00:07:12;9.27;;;4.60;;
39772;SDS011;25451;51.960;6.250;2023-06-22T00:09:37;9.60;;;5.30;;
39772;SDS011;25451;51.960;6.250;2023-06-22T00:12:03;8.07;;;5.10;;
39772;SDS011;25451;51.960;6.250;2023-06-22T00:14:28;9.52;;;4.70;;
39772;SDS011;25451;51.960;6.250;2023-06-22T00:16:54;7.87;;;4.47;;
39772;SDS011;25451;51.960;6.250;2023-06-22T00:19:23;7.80;;;4.88;;
39772;SDS011;25451;51.960;6.250;2023-06-22T00:21:52;8.77;;;4.70;;
39772;SDS011;25451;51.960;6.250;2023-06-22T00:24:21;8.43;;;4.72;;
39772;SDS011;25451;51.960;6.250;2023-06-22T00:26:47;6.53;;;4.30;;
39772;SDS011;25451;51.960;6.250;2023-06-22T00:29:13;7.82;;;4.90;;
39772;SDS011;25451;51.960;6.250;2023-06-22T00:31:38;9.03;;;5.10;;
39772;SDS011;25451;51.960;6.250;2023-06-22T00:34:04;10.83;;;4.27;;
39772;SDS011;25451;51.960;6.250;2023-06-22T00:36:31;9.10;;;4.03;;
39772;SDS011;25451;51.960;6.250;2023-06-22T00:38:57;8.60;;;4.10;;
39772;SDS011;25451;51.960;6.250;2023-06-22T00:41:22;10.13;;;4.23;;
39772;SDS011;25451;51.960;6.250;2023-06-22T00:43:47;8.53;;;4.47;;
39772;SDS011;25451;51.960;6.250;2023-06-22T00:46:13;7.00;;;4.30;;
39772;SDS011;25451;51.960;6.250;2023-06-22T00:48:38;8.13;;;3.97;;
39772;SDS011;25451;51.960;6.250;2023-06-22T00:51:06;7.10;;;3.80;;
39772;SDS011;25451;51.960;6.250;2023-06-22T00:53:32;6.90;;;3.83;;
39772;SDS011;25451;51.960;6.250;2023-06-22T00:56:00;7.32;;;3.90;;
39772;SDS011;25451;51.960;6.250;2023-06-22T00:58:25;7.73;;;4.40;;
39772;SDS011;25451;51.960;6.250;2023-06-22T01:00:51;9.40;;;5.20;;
39772;SDS011;25451;51.960;6.250;2023-06-22T01:03:16;7.93;;;4.53;;
39772;SDS011;25451;51.960;6.250;2023-06-22T01:05:42;9.63;;;5.00;;
39772;SDS011;25451;51.960;6.250;2023-06-22T01:11:01;8.10;;;4.72;;
39772;SDS011;25451;51.960;6.250;2023-06-22T01:13:48;7.07;;;4.37;;
39772;SDS011;25451;51.960;6.250;2023-06-22T01:16:20;6.90;;;4.40;;
39772;SDS011;25451;51.960;6.250;2023-06-22T01:18:55;6.70;;;3.83;;
39772;SDS011;25451;51.960;6.250;2023-06-22T01:21:25;8.95;;;4.35;;
39772;SDS011;25451;51.960;6.250;2023-06-22T01:27:04;9.00;;;4.43;;
39772;SDS011;25451;51.960;6.250;2023-06-22T01:29:57;7.22;;;4.00;;
39772;SDS011;25451;51.960;6.250;2023-06-22T01:32:27;6.65;;;4.22;;
39772;SDS011;25451;51.960;6.250;2023-06-22T01:34:55;7.65;;;5.00;;
39772;SDS011;25451;51.960;6.250;2023-06-22T01:37:22;7.38;;;4.30;;
39772;SDS011;25451;51.960;6.250;2023-06-22T01:39:48;8.53;;;4.10;;
39772;SDS011;25451;51.960;6.250;2023-06-22T01:42:14;8.40;;;4.80;;
39772;SDS011;25451;51.960;6.250;2023-06-22T01:44:39;9.43;;;4.63;;
39772;SDS011;25451;51.960;6.250;2023-06-22T01:47:05;9.23;;;4.90;;
39772;SDS011;25451;51.960;6.250;2023-06-22T01:49:32;8.57;;;4.68;;
39772;SDS011;25451;51.960;6.250;2023-06-22T01:51:57;7.32;;;4.13;;
39772;SDS011;25451;51.960;6.250;2023-06-22T01:54:23;9.10;;;4.72;;
39772;SDS011;25451;51.960;6.250;2023-06-22T01:56:49;7.03;;;4.20;;
39772;SDS011;25451;51.960;6.250;2023-06-22T01:59:18;7.78;;;4.22;;
39772;SDS011;25451;51.960;6.250;2023-06-22T02:01:55;11.27;;;4.50;;
39772;SDS011;25451;51.960;6.250;2023-06-22T02:04:26;8.27;;;4.68;;
39772;SDS011;25451;51.960;6.250;2023-06-22T02:06:58;8.65;;;4.43;;
39772;SDS011;25451;51.960;6.250;2023-06-22T02:09:25;8.13;;;4.40;;
39772;SDS011;25451;51.960;6.250;2023-06-22T02:11:55;9.43;;;4.85;;
39772;SDS011;25451;51.960;6.250;2023-06-22T02:14:21;8.77;;;4.50;;
39772;SDS011;25451;51.960;6.250;2023-06-22T02:16:48;7.32;;;4.45;;
39772;SDS011;25451;51.960;6.250;2023-06-22T02:19:15;8.35;;;4.97;;
39772;SDS011;25451;51.960;6.250;2023-06-22T02:21:40;8.55;;;4.72;;
39772;SDS011;25451;51.960;6.250;2023-06-22T02:24:06;8.40;;;5.03;;
39772;SDS011;25451;51.960;6.250;2023-06-22T02:26:31;9.10;;;4.60;;
39772;SDS011;25451;51.960;6.250;2023-06-22T02:28:57;8.13;;;4.93;;
39772;SDS011;25451;51.960;6.250;2023-06-22T02:31:23;9.33;;;5.17;;
39772;SDS011;25451;51.960;6.250;2023-06-22T02:33:56;9.25;;;5.68;;
39772;SDS011;25451;51.960;6.250;2023-06-22T02:36:23;9.90;;;5.65;;
39772;SDS011;25451;51.960;6.250;2023-06-22T02:38:51;9.02;;;5.43;;
39772;SDS011;25451;51.960;6.250;2023-06-22T02:41:17;9.73;;;5.10;;
39772;SDS011;25451;51.960;6.250;2023-06-22T02:43:46;8.00;;;4.97;;
39772;SDS011;25451;51.960;6.250;2023-06-22T02:46:12;9.15;;;5.68;;
39772;SDS011;25451;51.960;6.250;2023-06-22T02:48:38;7.65;;;5.13;;
39772;SDS011;25451;51.960;6.250;2023-06-22T02:51:04;9.30;;;5.22;;
39772;SDS011;25451;51.960;6.250;2023-06-22T02:53:30;8.63;;;4.80;;
39772;SDS011;25451;51.960;6.250;2023-06-22T02:55:55;10.07;;;5.10;;
39772;SDS011;25451;51.960;6.250;2023-06-22T02:58:21;8.03;;;4.90;;
39772;SDS011;25451;51.960;6.250;2023-06-22T03:00:46;7.80;;;5.07;;
39772;SDS011;25451;51.960;6.250;2023-06-22T03:03:11;8.63;;;5.67;;
39772;SDS011;25451;51.960;6.250;2023-06-22T03:05:37;7.93;;;5.13;;
39772;SDS011;25451;51.960;6.250;2023-06-22T03:08:02;10.07;;;5.70;;
39772;SDS011;25451;51.960;6.250;2023-06-22T03:10:27;8.23;;;5.33;;
39772;SDS011;25451;51.960;6.250;2023-06-22T03:12:53;8.30;;;5.17;;
39772;SDS011;25451;51.960;6.250;2023-06-22T03:15:18;9.80;;;5.70;;
39772;SDS011;25451;51.960;6.250;2023-06-22T03:17:43;9.50;;;5.70;;
39772;SDS011;25451;51.960;6.250;2023-06-22T03:20:09;10.85;;;5.80;;
39772;SDS011;25451;51.960;6.250;2023-06-22T03:22:36;9.80;;;6.10;;
39772;SDS011;25451;51.960;6.250;2023-06-22T03:25:02;11.15;;;6.43;;
39772;SDS011;25451;51.960;6.250;2023-06-22T03:27:28;11.57;;;5.90;;
39772;SDS011;25451;51.960;6.250;2023-06-22T03:29:53;11.73;;;6.33;;
39772;SDS011;25451;51.960;6.250;2023-06-22T03:32:18;10.53;;;6.33;;
39772;SDS011;25451;51.960;6.250;2023-06-22T03:34:44;10.00;;;6.47;;
39772;SDS011;25451;51.960;6.250;2023-06-22T03:37:12;12.07;;;6.68;;
39772;SDS011;25451;51.960;6.250;2023-06-22T03:39:38;10.77;;;6.30;;
39772;SDS011;25451;51.960;6.250;2023-06-22T03:42:04;13.63;;;7.63;;
39772;SDS011;25451;51.960;6.250;2023-06-22T03:44:29;11.73;;;7.00;;
39772;SDS011;25451;51.960;6.250;2023-06-22T03:46:55;15.03;;;6.77;;
39772;SDS011;25451;51.960;6.250;2023-06-22T03:49:20;12.13;;;7.90;;
39772;SDS011;25451;51.960;6.250;2023-06-22T03:51:45;11.45;;;6.68;;
39772;SDS011;25451;51.960;6.250;2023-06-22T03:54:10;13.13;;;8.00;;
39772;SDS011;25451;51.960;6.250;2023-06-22T03:56:36;12.30;;;7.07;;
39772;SDS011;25451;51.960;6.250;2023-06-22T03:59:02;13.20;;;8.00;;
39772;SDS011;25451;51.960;6.250;2023-06-22T04:01:27;13.60;;;8.15;;
39772;SDS011;25451;51.960;6.250;2023-06-22T04:03:52;12.60;;;7.93;;
39772;SDS011;25451;51.960;6.250;2023-06-22T04:06:18;14.73;;;7.80;;
39772;SDS011;25451;51.960;6.250;2023-06-22T04:08:44;17.03;;;8.27;;
39772;SDS011;25451;51.960;6.250;2023-06-22T04:11:13;13.18;;;8.30;;
39772;SDS011;25451;51.960;6.250;2023-06-22T04:13:38;12.63;;;8.20;;
39772;SDS011;25451;51.960;6.250;2023-06-22T04:16:04;14.67;;;8.00;;
39772;SDS011;25451;51.960;6.250;2023-06-22T04:18:29;14.20;;;8.47;;
39772;SDS011;25451;51.960;6.250;2023-06-22T04:20:54;14.38;;;8.88;;
39772;SDS011;25451;51.960;6.250;2023-06-22T04:23:20;15.50;;;8.60;;
39772;SDS011;25451;51.960;6.250;2023-06-22T04:25:45;16.33;;;9.07;;
39772;SDS011;25451;51.960;6.250;2023-06-22T04:28:10;13.93;;;8.40;;
39772;SDS011;25451;51.960;6.250;2023-06-22T04:30:37;14.68;;;9.02;;
39772;SDS011;25451;51.960;6.250;2023-06-22T04:33:11;15.73;;;8.63;;
39772;SDS011;25451;51.960;6.250;2023-06-22T04:35:39;14.63;;;9.20;;
39772;SDS011;25451;51.960;6.250;2023-06-22T04:38:06;17.75;;;9.77;;
39772;SDS011;25451;51.960;6.250;2023-06-22T04:40:32;15.98;;;9.10;;
39772;SDS011;25451;51.960;6.250;2023-06-22T04:42:58;16.03;;;9.63;;
39772;SDS011;25451;51.960;6.250;2023-06-22T04:45:27;16.50;;;10.27;;
39772;SDS011;25451;51.960;6.250;2023-06-22T04:47:54;16.13;;;9.88;;
39772;SDS011;25451;51.960;6.250;2023-06-22T04:50:19;15.87;;;9.77;;
39772;SDS011;25451;51.960;6.250;2023-06-22T04:52:46;16.98;;;10.68;;
39772;SDS011;25451;51.960;6.250;2023-06-22T04:55:11;14.17;;;8.93;;
39772;SDS011;25451;51.960;6.250;2023-06-22T04:57:37;18.77;;;9.93;;
39772;SDS011;25451;51.960;6.250;2023-06-22T05:00:04;18.73;;;10.93;;
39772;SDS011;25451;51.960;6.250;2023-06-22T05:02:42;18.23;;;11.17;;
39772;SDS011;25451;51.960;6.250;2023-06-22T05:05:09;17.27;;;11.20;;
39772;SDS011;25451;51.960;6.250;2023-06-22T05:07:38;17.63;;;10.68;;
39772;SDS011;25451;51.960;6.250;2023-06-22T05:10:04;21.13;;;12.15;;
39772;SDS011;25451;51.960;6.250;2023-06-22T05:12:30;19.73;;;11.73;;
39772;SDS011;25451;51.960;6.250;2023-06-22T05:14:56;18.75;;;11.90;;
39772;SDS011;25451;51.960;6.250;2023-06-22T05:17:21;19.20;;;12.00;;
39772;SDS011;25451;51.960;6.250;2023-06-22T05:19:47;18.70;;;12.03;;
39772;SDS011;25451;51.960;6.250;2023-06-22T05:22:15;20.92;;;11.93;;
39772;SDS011;25451;51.960;6.250;2023-06-22T05:24:41;23.85;;;13.32;;
39772;SDS011;25451;51.960;6.250;2023-06-22T05:27:07;19.40;;;12.13;;
39772;SDS011;25451;51.960;6.250;2023-06-22T05:29:32;20.37;;;12.53;;
39772;SDS011;25451;51.960;6.250;2023-06-22T05:31:58;18.10;;;12.07;;
39772;SDS011;25451;51.960;6.250;2023-06-22T05:34:23;20.43;;;12.10;;
39772;SDS011;25451;51.960;6.250;2023-06-22T05:36:48;23.10;;;12.73;;
39772;SDS011;25451;51.960;6.250;2023-06-22T05:39:14;19.10;;;12.43;;
39772;SDS011;25451;51.960;6.250;2023-06-22T05:41:40;20.30;;;12.73;;
39772;SDS011;25451;51.960;6.250;2023-06-22T05:44:05;22.33;;;12.63;;
39772;SDS011;25451;51.960;6.250;2023-06-22T05:46:31;18.52;;;12.20;;
39772;SDS011;25451;51.960;6.250;2023-06-22T05:48:56;21.50;;;12.17;;
39772;SDS011;25451;51.960;6.250;2023-06-22T05:51:21;18.77;;;11.47;;
39772;SDS011;25451;51.960;6.250;2023-06-22T05:53:47;20.90;;;12.10;;
39772;SDS011;25451;51.960;6.250;2023-06-22T05:56:15;19.02;;;11.07;;
39772;SDS011;25451;51.960;6.250;2023-06-22T05:58:40;22.33;;;12.43;;
39772;SDS011;25451;51.960;6.250;2023-06-22T06:01:06;19.00;;;12.02;;
39772;SDS011;25451;51.960;6.250;2023-06-22T06:03:31;19.60;;;12.37;;
39772;SDS011;25451;51.960;6.250;2023-06-22T06:05:56;19.10;;;11.70;;
39772;SDS011;25451;51.960;6.250;2023-06-22T06:08:22;18.10;;;11.73;;
39772;SDS011;25451;51.960;6.250;2023-06-22T06:10:47;19.97;;;11.73;;
39772;SDS011;25451;51.960;6.250;2023-06-22T06:13:13;16.98;;;11.30;;
39772;SDS011;25451;51.960;6.250;2023-06-22T06:15:38;17.87;;;11.93;;
39772;SDS011;25451;51.960;6.250;2023-06-22T06:18:03;17.93;;;11.10;;
39772;SDS011;25451;51.960;6.250;2023-06-22T06:20:30;18.20;;;11.43;;
39772;SDS011;25451;51.960;6.250;2023-06-22T06:22:56;18.30;;;11.67;;
39772;SDS011;25451;51.960;6.250;2023-06-22T06:25:21;17.40;;;11.27;;
39772;SDS011;25451;51.960;6.250;2023-06-22T06:27:48;17.55;;;11.85;;
39772;SDS011;25451;51.960;6.250;2023-06-22T06:30:15;18.17;;;11.57;;
39772;SDS011;25451;51.960;6.250;2023-06-22T06:32:41;16.55;;;10.77;;
39772;SDS011;25451;51.960;6.250;2023-06-22T06:35:08;17.58;;;11.38;;
39772;SDS011;25451;51.960;6.250;2023-06-22T06:37:38;16.15;;;10.88;;
39772;SDS011;25451;51.960;6.250;2023-06-22T06:40:08;15.93;;;10.27;;
39772;SDS011;25451;51.960;6.250;2023-06-22T06:42:45;15.30;;;10.63;;
39772;SDS011;25451;51.960;6.250;2023-06-22T06:45:16;20.73;;;12.00;;
39772;SDS011;25451;51.960;6.250;2023-06-22T06:47:43;17.52;;;11.02;;
39772;SDS011;25451;51.960;6.250;2023-06-22T06:50:09;17.93;;;11.83;;
39772;SDS011;25451;51.960;6.250;2023-06-22T06:52:36;18.65;;;11.27;;
39772;SDS011;25451;51.960;6.250;2023-06-22T06:55:01;14.90;;;10.27;;
39772;SDS011;25451;51.960;6.250;2023-06-22T06:57:30;20.02;;;12.23;;
39772;SDS011;25451;51.960;6.250;2023-06-22T06:59:55;17.17;;;11.03;;
39772;SDS011;25451;51.960;6.250;2023-06-22T07:02:21;17.55;;;11.73;;
39772;SDS011;25451;51.960;6.250;2023-06-22T07:04:47;20.55;;;11.68;;
39772;SDS011;25451;51.960;6.250;2023-06-22T07:07:13;16.30;;;11.00;;
39772;SDS011;25451;51.960;6.250;2023-06-22T07:09:39;16.67;;;10.67;;
39772;SDS011;25451;51.960;6.250;2023-06-22T07:12:04;15.37;;;10.43;;
39772;SDS011;25451;51.960;6.250;2023-06-22T07:14:30;15.88;;;10.68;;
39772;SDS011;25451;51.960;6.250;2023-06-22T07:16:56;14.20;;;10.68;;
39772;SDS011;25451;51.960;6.250;2023-06-22T07:19:25;16.53;;;9.93;;
39772;SDS011;25451;51.960;6.250;2023-06-22T07:21:52;16.13;;;10.80;;
39772;SDS011;25451;51.960;6.250;2023-06-22T07:24:18;17.08;;;10.63;;
39772;SDS011;25451;51.960;6.250;2023-06-22T07:26:44;16.42;;;10.70;;
39772;SDS011;25451;51.960;6.250;2023-06-22T07:29:11;17.17;;;10.30;;
39772;SDS011;25451;51.960;6.250;2023-06-22T07:31:37;14.38;;;9.63;;
39772;SDS011;25451;51.960;6.250;2023-06-22T07:34:02;16.53;;;10.53;;
39772;SDS011;25451;51.960;6.250;2023-06-22T07:36:29;14.88;;;10.98;;
39772;SDS011;25451;51.960;6.250;2023-06-22T07:38:55;16.38;;;10.45;;
39772;SDS011;25451;51.960;6.250;2023-06-22T07:41:20;15.63;;;10.77;;
39772;SDS011;25451;51.960;6.250;2023-06-22T07:43:46;17.83;;;10.47;;
39772;SDS011;25451;51.960;6.250;2023-06-22T07:46:11;15.47;;;9.70;;
39772;SDS011;25451;51.960;6.250;2023-06-22T07:48:37;16.92;;;10.82;;
39772;SDS011;25451;51.960;6.250;2023-06-22T07:51:03;16.23;;;10.73;;
39772;SDS011;25451;51.960;6.250;2023-06-22T07:53:28;16.57;;;10.90;;
39772;SDS011;25451;51.960;6.250;2023-06-22T07:55:53;15.03;;;10.03;;
39772;SDS011;25451;51.960;6.250;2023-06-22T07:58:19;15.10;;;9.03;;
39772;SDS011;25451;51.960;6.250;2023-06-22T08:00:45;15.88;;;9.65;;
39772;SDS011;25451;51.960;6.250;2023-06-22T08:03:11;17.08;;;10.85;;
39772;SDS011;25451;51.960;6.250;2023-06-22T08:05:37;15.97;;;9.60;;
39772;SDS011;25451;51.960;6.250;2023-06-22T08:08:02;15.03;;;10.60;;
39772;SDS011;25451;51.960;6.250;2023-06-22T08:10:27;13.47;;;9.37;;
39772;SDS011;25451;51.960;6.250;2023-06-22T08:12:53;16.27;;;10.53;;
39772;SDS011;25451;51.960;6.250;2023-06-22T08:15:18;13.17;;;8.87;;
39772;SDS011;25451;51.960;6.250;2023-06-22T08:17:44;14.57;;;9.35;;
39772;SDS011;25451;51.960;6.250;2023-06-22T08:20:10;14.30;;;9.47;;
39772;SDS011;25451;51.960;6.250;2023-06-22T08:22:37;15.43;;;10.25;;
39772;SDS011;25451;51.960;6.250;2023-06-22T08:25:03;15.50;;;9.57;;
39772;SDS011;25451;51.960;6.250;2023-06-22T08:27:29;16.40;;;10.20;;
39772;SDS011;25451;51.960;6.250;2023-06-22T08:29:57;13.57;;;8.70;;
39772;SDS011;25451;51.960;6.250;2023-06-22T08:32:24;14.68;;;9.70;;
39772;SDS011;25451;51.960;6.250;2023-06-22T08:34:55;16.83;;;9.93;;
39772;SDS011;25451;51.960;6.250;2023-06-22T08:37:21;14.05;;;9.57;;
39772;SDS011;25451;51.960;6.250;2023-06-22T08:39:56;15.77;;;10.30;;
39772;SDS011;25451;51.960;6.250;2023-06-22T08:42:22;13.10;;;8.70;;
39772;SDS011;25451;51.960;6.250;2023-06-22T08:44:49;13.48;;;8.10;;
39772;SDS011;25451;51.960;6.250;2023-06-22T08:47:14;12.13;;;8.10;;
39772;SDS011;25451;51.960;6.250;2023-06-22T08:49:39;15.37;;;9.60;;
39772;SDS011;25451;51.960;6.250;2023-06-22T08:52:05;12.83;;;8.60;;
39772;SDS011;25451;51.960;6.250;2023-06-22T08:54:30;11.30;;;8.50;;
39772;SDS011;25451;51.960;6.250;2023-06-22T08:56:58;14.35;;;8.88;;
39772;SDS011;25451;51.960;6.250;2023-06-22T08:59:23;11.87;;;7.57;;
39772;SDS011;25451;51.960;6.250;2023-06-22T09:01:48;13.00;;;8.67;;
39772;SDS011;25451;51.960;6.250;2023-06-22T09:04:14;13.30;;;8.20;;
39772;SDS011;25451;51.960;6.250;2023-06-22T09:06:40;12.40;;;7.43;;
39772;SDS011;25451;51.960;6.250;2023-06-22T09:09:10;13.45;;;7.47;;
39772;SDS011;25451;51.960;6.250;2023-06-22T09:11:37;11.93;;;7.57;;
39772;SDS011;25451;51.960;6.250;2023-06-22T09:14:02;10.37;;;6.70;;
39772;SDS011;25451;51.960;6.250;2023-06-22T09:16:28;13.75;;;7.80;;
39772;SDS011;25451;51.960;6.250;2023-06-22T09:18:54;10.43;;;7.10;;
39772;SDS011;25451;51.960;6.250;2023-06-22T09:21:19;11.93;;;7.03;;
39772;SDS011;25451;51.960;6.250;2023-06-22T09:23:44;14.93;;;8.53;;
39772;SDS011;25451;51.960;6.250;2023-06-22T09:26:11;12.40;;;7.50;;
39772;SDS011;25451;51.960;6.250;2023-06-22T09:28:37;12.38;;;7.80;;
39772;SDS011;25451;51.960;6.250;2023-06-22T09:31:02;13.00;;;7.63;;
39772;SDS011;25451;51.960;6.250;2023-06-22T09:33:28;12.93;;;7.87;;
39772;SDS011;25451;51.960;6.250;2023-06-22T09:35:53;11.00;;;8.00;;
39772;SDS011;25451;51.960;6.250;2023-06-22T09:38:18;12.07;;;7.80;;
39772;SDS011;25451;51.960;6.250;2023-06-22T09:40:44;11.43;;;7.40;;
39772;SDS011;25451;51.960;6.250;2023-06-22T09:43:09;10.87;;;7.10;;
39772;SDS011;25451;51.960;6.250;2023-06-22T09:45:36;11.15;;;6.55;;
39772;SDS011;25451;51.960;6.250;2023-06-22T09:48:02;9.67;;;6.37;;
39772;SDS011;25451;51.960;6.250;2023-06-22T09:50:27;9.87;;;6.00;;
39772;SDS011;25451;51.960;6.250;2023-06-22T09:52:52;7.70;;;5.83;;
39772;SDS011;25451;51.960;6.250;2023-06-22T09:55:20;11.13;;;6.93;;
39772;SDS011;25451;51.960;6.250;2023-06-22T09:57:46;9.40;;;6.47;;
39772;SDS011;25451;51.960;6.250;2023-06-22T10:00:11;10.87;;;6.50;;
39772;SDS011;25451;51.960;6.250;2023-06-22T10:02:43;10.30;;;6.82;;
39772;SDS011;25451;51.960;6.250;2023-06-22T10:05:09;12.27;;;7.30;;
39772;SDS011;25451;51.960;6.250;2023-06-22T10:07:35;12.40;;;7.10;;
39772;SDS011;25451;51.960;6.250;2023-06-22T10:10:05;9.65;;;6.63;;
39772;SDS011;25451;51.960;6.250;2023-06-22T10:12:31;9.50;;;6.07;;
39772;SDS011;25451;51.960;6.250;2023-06-22T10:14:56;10.20;;;6.72;;
39772;SDS011;25451;51.960;6.250;2023-06-22T10:17:21;12.73;;;7.00;;
39772;SDS011;25451;51.960;6.250;2023-06-22T10:19:47;11.10;;;6.20;;
39772;SDS011;25451;51.960;6.250;2023-06-22T10:22:12;9.37;;;6.60;;
39772;SDS011;25451;51.960;6.250;2023-06-22T10:24:37;12.63;;;6.60;;
39772;SDS011;25451;51.960;6.250;2023-06-22T10:27:09;9.25;;;5.95;;
39772;SDS011;25451;51.960;6.250;2023-06-22T10:29:34;10.40;;;6.23;;
39772;SDS011;25451;51.960;6.250;2023-06-22T10:32:00;9.07;;;6.30;;
39772;SDS011;25451;51.960;6.250;2023-06-22T10:34:25;12.03;;;5.80;;
39772;SDS011;25451;51.960;6.250;2023-06-22T10:36:50;10.50;;;6.37;;
39772;SDS011;25451;51.960;6.250;2023-06-22T10:39:16;9.85;;;6.50;;
39772;SDS011;25451;51.960;6.250;2023-06-22T10:41:41;11.57;;;6.83;;
39772;SDS011;25451;51.960;6.250;2023-06-22T10:44:06;10.20;;;6.30;;
39772;SDS011;25451;51.960;6.250;2023-06-22T10:46:32;10.53;;;7.23;;
39772;SDS011;25451;51.960;6.250;2023-06-22T10:48:57;11.63;;;6.80;;
39772;SDS011;25451;51.960;6.250;2023-06-22T10:51:23;15.38;;;7.13;;
39772;SDS011;25451;51.960;6.250;2023-06-22T10:53:50;9.75;;;6.80;;
39772;SDS011;25451;51.960;6.250;2023-06-22T10:56:16;9.33;;;6.60;;
39772;SDS011;25451;51.960;6.250;2023-06-22T10:58:41;11.60;;;7.47;;
39772;SDS011;25451;51.960;6.250;2023-06-22T11:01:06;11.10;;;6.88;;
39772;SDS011;25451;51.960;6.250;2023-06-22T11:03:32;12.27;;;7.70;;
39772;SDS011;25451;51.960;6.250;2023-06-22T11:05:57;10.20;;;6.57;;
39772;SDS011;25451;51.960;6.250;2023-06-22T11:08:22;10.97;;;7.60;;
39772;SDS011;25451;51.960;6.250;2023-06-22T11:10:48;10.50;;;6.90;;
39772;SDS011;25451;51.960;6.250;2023-06-22T11:13:13;10.80;;;7.27;;
39772;SDS011;25451;51.960;6.250;2023-06-22T11:15:39;8.63;;;6.17;;
39772;SDS011;25451;51.960;6.250;2023-06-22T11:18:04;11.27;;;6.70;;
39772;SDS011;25451;51.960;6.250;2023-06-22T11:20:30;11.13;;;6.77;;
39772;SDS011;25451;51.960;6.250;2023-06-22T11:22:56;10.35;;;7.18;;
39772;SDS011;25451;51.960;6.250;2023-06-22T11:25:21;11.60;;;6.67;;
39772;SDS011;25451;51.960;6.250;2023-06-22T11:27:46;10.93;;;6.53;;
39772;SDS011;25451;51.960;6.250;2023-06-22T11:30:12;9.27;;;6.20;;
39772;SDS011;25451;51.960;6.250;2023-06-22T11:32:37;12.95;;;6.88;;
39772;SDS011;25451;51.960;6.250;2023-06-22T11:35:02;10.87;;;6.30;;
39772;SDS011;25451;51.960;6.250;2023-06-22T11:37:28;10.83;;;6.80;;
39772;SDS011;25451;51.960;6.250;2023-06-22T11:39:53;13.50;;;6.40;;
39772;SDS011;25451;51.960;6.250;2023-06-22T11:42:20;10.20;;;6.15;;
39772;SDS011;25451;51.960;6.250;2023-06-22T11:44:45;9.10;;;6.17;;
39772;SDS011;25451;51.960;6.250;2023-06-22T11:47:10;9.70;;;6.10;;
39772;SDS011;25451;51.960;6.250;2023-06-22T11:49:36;10.48;;;6.35;;
39772;SDS011;25451;51.960;6.250;2023-06-22T11:52:01;9.73;;;6.03;;
39772;SDS011;25451;51.960;6.250;2023-06-22T11:54:26;10.07;;;6.20;;
39772;SDS011;25451;51.960;6.250;2023-06-22T11:56:52;8.57;;;6.30;;
39772;SDS011;25451;51.960;6.250;2023-06-22T11:59:17;9.30;;;5.90;;
39772;SDS011;25451;51.960;6.250;2023-06-22T12:01:43;9.67;;;6.73;;
39772;SDS011;25451;51.960;6.250;2023-06-22T12:04:08;8.53;;;6.10;;
39772;SDS011;25451;51.960;6.250;2023-06-22T12:06:37;9.53;;;6.13;;
39772;SDS011;25451;51.960;6.250;2023-06-22T12:09:03;11.43;;;7.15;;
39772;SDS011;25451;51.960;6.250;2023-06-22T12:11:29;11.52;;;6.70;;
39772;SDS011;25451;51.960;6.250;2023-06-22T12:13:55;9.23;;;6.60;;
39772;SDS011;25451;51.960;6.250;2023-06-22T12:16:20;9.23;;;6.30;;
39772;SDS011;25451;51.960;6.250;2023-06-22T12:18:46;10.27;;;6.72;;
39772;SDS011;25451;51.960;6.250;2023-06-22T12:21:12;9.00;;;6.85;;
39772;SDS011;25451;51.960;6.250;2023-06-22T12:23:37;13.37;;;7.57;;
39772;SDS011;25451;51.960;6.250;2023-06-22T12:26:03;13.63;;;7.33;;
39772;SDS011;25451;51.960;6.250;2023-06-22T12:28:28;11.97;;;7.70;;
39772;SDS011;25451;51.960;6.250;2023-06-22T12:30:53;10.17;;;7.00;;
39772;SDS011;25451;51.960;6.250;2023-06-22T12:33:19;12.13;;;7.17;;
39772;SDS011;25451;51.960;6.250;2023-06-22T12:35:44;10.80;;;7.60;;
39772;SDS011;25451;51.960;6.250;2023-06-22T12:38:10;10.75;;;7.70;;
39772;SDS011;25451;51.960;6.250;2023-06-22T12:40:36;12.47;;;7.83;;
39772;SDS011;25451;51.960;6.250;2023-06-22T12:43:01;12.07;;;8.23;;
39772;SDS011;25451;51.960;6.250;2023-06-22T12:45:27;14.13;;;8.67;;
39772;SDS011;25451;51.960;6.250;2023-06-22T12:47:54;12.25;;;7.97;;
39772;SDS011;25451;51.960;6.250;2023-06-22T12:50:19;12.23;;;8.03;;
39772;SDS011;25451;51.960;6.250;2023-06-22T12:52:45;13.47;;;8.07;;
39772;SDS011;25451;51.960;6.250;2023-06-22T12:55:10;12.82;;;8.45;;
39772;SDS011;25451;51.960;6.250;2023-06-22T12:57:35;14.03;;;8.27;;
39772;SDS011;25451;51.960;6.250;2023-06-22T13:00:01;11.20;;;8.83;;
39772;SDS011;25451;51.960;6.250;2023-06-22T13:02:27;11.65;;;8.52;;
39772;SDS011;25451;51.960;6.250;2023-06-22T13:04:52;13.60;;;8.73;;
39772;SDS011;25451;51.960;6.250;2023-06-22T13:07:18;12.48;;;9.00;;
39772;SDS011;25451;51.960;6.250;2023-06-22T13:09:43;12.73;;;8.90;;
39772;SDS011;25451;51.960;6.250;2023-06-22T13:12:11;11.30;;;7.80;;
39772;SDS011;25451;51.960;6.250;2023-06-22T13:14:36;12.82;;;8.88;;
39772;SDS011;25451;51.960;6.250;2023-06-22T13:17:02;11.27;;;8.77;;
39772;SDS011;25451;51.960;6.250;2023-06-22T13:19:27;15.37;;;9.30;;
39772;SDS011;25451;51.960;6.250;2023-06-22T13:21:57;13.93;;;9.75;;
39772;SDS011;25451;51.960;6.250;2023-06-22T13:24:22;14.57;;;10.17;;
39772;SDS011;25451;51.960;6.250;2023-06-22T13:26:47;13.67;;;10.07;;
39772;SDS011;25451;51.960;6.250;2023-06-22T13:29:13;15.67;;;9.77;;
39772;SDS011;25451;51.960;6.250;2023-06-22T13:31:38;15.60;;;9.93;;
39772;SDS011;25451;51.960;6.250;2023-06-22T13:34:03;16.70;;;10.30;;
39772;SDS011;25451;51.960;6.250;2023-06-22T13:36:29;18.20;;;10.20;;
39772;SDS011;25451;51.960;6.250;2023-06-22T13:38:55;14.55;;;10.20;;
39772;SDS011;25451;51.960;6.250;2023-06-22T13:41:21;17.13;;;10.60;;
39772;SDS011;25451;51.960;6.250;2023-06-22T13:43:46;15.10;;;10.13;;
39772;SDS011;25451;51.960;6.250;2023-06-22T13:46:11;16.37;;;11.10;;
39772;SDS011;25451;51.960;6.250;2023-06-22T13:48:36;14.90;;;10.77;;
39772;SDS011;25451;51.960;6.250;2023-06-22T13:51:02;18.77;;;11.17;;
39772;SDS011;25451;51.960;6.250;2023-06-22T13:53:27;15.43;;;11.37;;
39772;SDS011;25451;51.960;6.250;2023-06-22T13:55:52;15.33;;;11.37;;
39772;SDS011;25451;51.960;6.250;2023-06-22T13:58:18;16.93;;;11.87;;
39772;SDS011;25451;51.960;6.250;2023-06-22T14:00:44;16.27;;;11.48;;
39772;SDS011;25451;51.960;6.250;2023-06-22T14:03:10;15.70;;;11.52;;
39772;SDS011;25451;51.960;6.250;2023-06-22T14:05:35;14.47;;;10.80;;
39772;SDS011;25451;51.960;6.250;2023-06-22T14:08:01;14.80;;;11.23;;
39772;SDS011;25451;51.960;6.250;2023-06-22T14:10:26;15.73;;;10.87;;
39772;SDS011;25451;51.960;6.250;2023-06-22T14:12:51;15.70;;;10.83;;
39772;SDS011;25451;51.960;6.250;2023-06-22T14:15:18;15.95;;;11.43;;
39772;SDS011;25451;51.960;6.250;2023-06-22T14:17:43;22.33;;;11.70;;
39772;SDS011;25451;51.960;6.250;2023-06-22T14:20:09;17.53;;;11.53;;
39772;SDS011;25451;51.960;6.250;2023-06-22T14:22:34;18.58;;;11.52;;
39772;SDS011;25451;51.960;6.250;2023-06-22T14:25:00;16.33;;;11.30;;
39772;SDS011;25451;51.960;6.250;2023-06-22T14:27:26;15.35;;;11.02;;
39772;SDS011;25451;51.960;6.250;2023-06-22T14:29:52;17.90;;;11.50;;
39772;SDS011;25451;51.960;6.250;2023-06-22T14:32:17;17.13;;;11.07;;
39772;SDS011;25451;51.960;6.250;2023-06-22T14:34:42;18.27;;;11.98;;